Time;durP1;ratioP1;P1;durP2;ratioP2;P2;SDS_P1;SDS_P2;PMS_P1;PMS_P2;Temp;Humidity;BMP_temperature;BMP_pressure;BME280_temperature;BME280_humidity;BME280_pressure;Samples;Min_cycle;Max_cycle;Signal;HPM_P1;HPM_P2
2021/11/21 00:02:03;;;;;;;18.52;13.70;;;4.20;99.90;;;;;;5032200;28;20113;-63
2021/11/21 00:04:29;;;;;;;19.67;14.85;;;3.30;99.90;;;;;;5027487;28;20026;-63
2021/11/21 00:06:55;;;;;;;17.23;12.38;;;3.50;99.90;;;;;;5033534;28;20482;-62
2021/11/21 00:09:20;;;;;;;15.48;11.80;;;3.70;99.90;;;;;;5032088;28;20079;-64
2021/11/21 00:11:46;;;;;;;17.63;12.05;;;3.70;99.90;;;;;;5028837;28;20041;-63
2021/11/21 00:14:12;;;;;;;20.75;12.15;;;3.80;99.90;;;;;;5033206;28;20034;-63
2021/11/21 00:16:38;;;;;;;16.13;11.45;;;3.60;99.90;;;;;;5025032;28;20041;-63
2021/11/21 00:19:04;;;;;;;20.50;10.88;;;3.60;99.90;;;;;;5032326;28;20025;-63
2021/11/21 00:21:30;;;;;;;14.70;11.20;;;3.50;99.90;;;;;;5034531;28;20059;-63
2021/11/21 00:23:56;;;;;;;16.02;11.52;;;3.50;99.90;;;;;;5031446;28;20033;-63
2021/11/21 00:26:22;;;;;;;15.32;10.70;;;4.40;99.90;;;;;;5027565;28;20498;-63
2021/11/21 00:28:49;;;;;;;15.77;11.40;;;4.30;99.90;;;;;;5021943;28;20018;-63
2021/11/21 00:31:15;;;;;;;16.95;11.27;;;3.80;99.90;;;;;;5042824;28;20034;-63
2021/11/21 00:33:41;;;;;;;14.32;11.32;;;3.80;99.90;;;;;;5031516;28;20033;-63
2021/11/21 00:36:07;;;;;;;12.65;9.95;;;3.30;99.90;;;;;;5029773;28;20028;-64
2021/11/21 00:38:33;;;;;;;14.70;10.43;;;3.90;99.90;;;;;;5033294;28;20083;-63
2021/11/21 00:40:59;;;;;;;11.95;9.63;;;3.20;99.90;;;;;;5029183;28;20053;-65
2021/11/21 00:43:25;;;;;;;10.60;9.25;;;3.40;99.90;;;;;;5033524;28;20032;-63
2021/11/21 00:45:50;;;;;;;13.30;9.40;;;3.30;99.90;;;;;;5031424;28;20419;-63
2021/11/21 00:48:23;;;;;;;12.30;9.15;;;3.20;99.90;;;;;;5028819;28;20057;-63
2021/11/21 00:50:52;;;;;;;11.50;8.85;;;3.50;99.90;;;;;;5031792;28;20033;-63
2021/11/21 00:53:18;;;;;;;13.02;9.90;;;3.40;99.90;;;;;;5023067;28;20038;-63
2021/11/21 00:56:07;;;;;;;11.73;9.55;;;3.20;99.90;;;;;;5027004;28;20117;-64
2021/11/21 00:58:32;;;;;;;13.38;9.77;;;3.20;99.90;;;;;;5021268;28;20038;-63
2021/11/21 01:00:59;;;;;;;12.43;9.55;;;3.30;99.90;;;;;;5031333;28;20120;-64
2021/11/21 01:03:26;;;;;;;14.52;9.38;;;3.40;99.90;;;;;;5015018;28;20053;-63
2021/11/21 01:05:54;;;;;;;11.23;9.45;;;3.00;99.90;;;;;;5030400;28;20479;-63
2021/11/21 01:08:20;;;;;;;12.35;9.25;;;3.20;99.90;;;;;;5031097;28;20022;-64
2021/11/21 01:10:48;;;;;;;14.18;10.27;;;3.20;99.90;;;;;;5027847;28;20022;-64
2021/11/21 01:13:14;;;;;;;13.57;10.25;;;3.30;99.90;;;;;;5032511;28;20460;-64
2021/11/21 01:15:40;;;;;;;12.75;10.02;;;3.90;99.90;;;;;;5029997;28;20060;-64
2021/11/21 01:18:07;;;;;;;14.07;10.73;;;3.70;99.90;;;;;;5021365;28;20493;-63
2021/11/21 01:20:34;;;;;;;13.93;10.13;;;3.10;99.90;;;;;;5031872;28;20032;-63
2021/11/21 01:23:00;;;;;;;15.52;9.70;;;3.40;99.90;;;;;;5028021;28;20057;-63
2021/11/21 01:25:27;;;;;;;11.80;9.00;;;3.20;99.90;;;;;;5028958;28;20033;-64
2021/11/21 01:27:53;;;;;;;11.65;9.27;;;;;;;;;;5032270;28;20368;-63
2021/11/21 01:30:23;;;;;;;12.77;9.82;;;2.50;99.90;;;;;;5020870;28;20060;-63
2021/11/21 01:32:49;;;;;;;11.75;9.57;;;3.30;99.90;;;;;;5013772;28;20109;-64
2021/11/21 01:35:15;;;;;;;12.15;9.38;;;3.60;99.90;;;;;;5030156;28;20037;-63
2021/11/21 01:37:42;;;;;;;12.60;9.70;;;3.10;99.90;;;;;;5031152;28;20414;-63
2021/11/21 01:40:10;;;;;;;12.20;9.57;;;3.10;99.90;;;;;;5030635;28;20055;-63
2021/11/21 01:42:36;;;;;;;12.90;9.18;;;3.40;99.90;;;;;;5023258;28;20042;-63
2021/11/21 01:45:03;;;;;;;11.55;8.85;;;3.10;99.90;;;;;;5031133;28;20468;-63
2021/11/21 01:47:29;;;;;;;12.35;9.55;;;2.80;99.90;;;;;;5030197;28;20399;-63
2021/11/21 01:49:54;;;;;;;12.55;9.43;;;3.60;99.90;;;;;;5026090;28;20033;-63
2021/11/21 01:52:20;;;;;;;11.18;8.95;;;3.00;99.90;;;;;;5032423;28;20040;-64
2021/11/21 01:54:46;;;;;;;14.25;10.57;;;3.10;99.90;;;;;;5025207;28;20025;-64
2021/11/21 01:57:12;;;;;;;18.55;10.52;;;3.40;99.90;;;;;;5030125;28;20071;-64
2021/11/21 01:59:38;;;;;;;14.25;10.07;;;3.80;99.90;;;;;;5031653;28;20032;-64
2021/11/21 02:02:04;;;;;;;12.80;10.05;;;2.80;99.90;;;;;;5029558;28;20084;-64
2021/11/21 02:04:30;;;;;;;15.15;10.73;;;3.80;99.90;;;;;;5030196;28;20498;-63
2021/11/21 02:06:56;;;;;;;13.48;9.80;;;3.20;99.90;;;;;;5027947;28;20057;-64
2021/11/21 02:09:22;;;;;;;14.45;10.38;;;2.70;99.90;;;;;;5013451;28;20029;-64
2021/11/21 02:11:47;;;;;;;13.65;10.05;;;3.70;99.90;;;;;;5030463;28;20029;-65
2021/11/21 02:14:13;;;;;;;13.85;9.57;;;2.60;99.90;;;;;;5027953;28;20044;-64
2021/11/21 02:16:39;;;;;;;13.68;10.95;;;2.80;99.90;;;;;;5033740;28;20025;-62
2021/11/21 02:19:04;;;;;;;13.40;10.15;;;2.80;99.90;;;;;;5081981;22;20044;-65
2021/11/21 02:21:30;;;;;;;14.80;10.38;;;2.90;99.90;;;;;;5085961;28;20082;-65
2021/11/21 02:23:57;;;;;;;15.65;10.75;;;2.80;99.90;;;;;;5091681;28;20035;-66
2021/11/21 02:26:23;;;;;;;12.05;9.68;;;3.80;99.90;;;;;;5089641;28;20028;-65
2021/11/21 02:28:53;;;;;;;14.02;9.88;;;3.30;99.90;;;;;;5089775;28;20054;-68
2021/11/21 02:31:19;;;;;;;13.02;9.77;;;3.10;99.90;;;;;;5054839;28;20037;-65
2021/11/21 02:33:45;;;;;;;14.07;9.82;;;3.10;99.90;;;;;;5089095;28;20028;-64
2021/11/21 02:36:11;;;;;;;14.80;9.80;;;3.00;99.90;;;;;;5087763;28;20044;-66
2021/11/21 02:38:38;;;;;;;12.70;9.48;;;2.20;99.90;;;;;;5083059;28;20623;-65
2021/11/21 02:41:07;;;;;;;12.38;9.32;;;3.20;99.90;;;;;;5088404;28;20488;-65
2021/11/21 02:43:33;;;;;;;14.68;10.65;;;2.70;99.90;;;;;;5088277;28;20032;-65
2021/11/21 02:45:59;;;;;;;14.73;10.73;;;2.90;99.90;;;;;;5084096;28;20504;-65
2021/11/21 02:48:29;;;;;;;13.73;10.25;;;2.70;99.90;;;;;;5073095;28;20037;-65
2021/11/21 02:50:56;;;;;;;21.20;11.13;;;2.80;99.90;;;;;;5068184;28;20028;-67
2021/11/21 02:53:26;;;;;;;13.68;9.80;;;3.00;99.90;;;;;;5092337;28;20476;-66
2021/11/21 02:55:56;;;;;;;15.20;10.20;;;2.70;99.90;;;;;;5094525;28;20032;-65
2021/11/21 02:58:22;;;;;;;14.43;9.77;;;2.80;99.90;;;;;;5092299;28;20028;-66
2021/11/21 03:00:48;;;;;;;14.18;10.40;;;2.50;99.90;;;;;;5092865;28;20039;-66
2021/11/21 03:03:15;;;;;;;14.35;10.75;;;2.80;99.90;;;;;;5094528;28;20024;-66
2021/11/21 03:05:41;;;;;;;14.98;10.60;;;2.90;99.90;;;;;;5092100;28;20025;-66
2021/11/21 03:08:06;;;;;;;17.73;11.93;;;2.60;99.90;;;;;;5083934;28;20521;-66
2021/11/21 03:10:33;;;;;;;16.65;11.95;;;2.10;99.90;;;;;;5087093;28;20032;-64
2021/11/21 03:13:01;;;;;;;15.10;10.75;;;2.60;99.90;;;;;;5091846;28;20028;-65
2021/11/21 03:15:28;;;;;;;23.67;11.30;;;2.20;99.90;;;;;;5088486;28;20036;-67
2021/11/21 03:17:55;;;;;;;16.70;10.98;;;2.80;99.90;;;;;;5078790;28;20678;-66
2021/11/21 03:20:24;;;;;;;15.60;11.15;;;2.70;99.90;;;;;;5092251;28;20032;-65
2021/11/21 03:22:50;;;;;;;27.30;12.23;;;3.50;99.90;;;;;;5085679;28;20084;-64
2021/11/21 03:25:15;;;;;;;16.63;11.15;;;2.40;99.90;;;;;;5093917;28;20509;-67
2021/11/21 03:27:42;;;;;;;16.67;11.25;;;2.60;99.90;;;;;;5091531;28;20485;-66
2021/11/21 03:30:10;;;;;;;17.27;11.68;;;2.30;99.90;;;;;;5083457;28;20028;-64
2021/11/21 03:32:36;;;;;;;31.15;12.68;;;2.60;99.90;;;;;;5087988;28;20044;-65
2021/11/21 03:35:03;;;;;;;24.40;11.38;;;3.30;99.90;;;;;;5069715;28;20024;-65
2021/11/21 03:37:28;;;;;;;23.20;11.85;;;2.20;99.90;;;;;;5091329;28;20118;-65
2021/11/21 03:39:54;;;;;;;17.88;11.45;;;2.40;99.90;;;;;;5091182;28;20061;-67
2021/11/21 03:42:20;;;;;;;20.83;13.52;;;3.50;99.90;;;;;;5089950;28;20031;-67
2021/11/21 03:44:46;;;;;;;25.17;12.73;;;2.50;99.90;;;;;;5090460;28;20030;-65
2021/11/21 03:47:12;;;;;;;26.10;11.50;;;2.10;99.90;;;;;;5091244;28;20086;-65
2021/11/21 03:49:37;;;;;;;19.25;13.40;;;2.60;99.90;;;;;;5054657;28;20079;-68
2021/11/21 03:52:04;;;;;;;18.30;10.98;;;2.10;99.90;;;;;;5089170;28;20028;-67
2021/11/21 03:54:29;;;;;;;19.40;10.98;;;2.20;99.90;;;;;;5083002;28;20060;-66
2021/11/21 03:56:55;;;;;;;19.08;11.25;;;2.10;99.90;;;;;;5088157;28;20058;-66
2021/11/21 03:59:21;;;;;;;73.60;12.50;;;2.00;99.90;;;;;;5086075;28;20451;-65
2021/11/21 04:01:48;;;;;;;18.30;11.32;;;2.00;99.90;;;;;;5090695;28;20401;-66
2021/11/21 04:04:13;;;;;;;65.45;11.57;;;1.80;99.90;;;;;;5088326;28;20535;-64
2021/11/21 04:06:40;;;;;;;38.03;11.32;;;2.00;99.90;;;;;;5084982;28;20020;-64
2021/11/21 04:09:06;;;;;;;20.80;11.52;;;2.30;99.90;;;;;;5090341;28;20051;-65
2021/11/21 04:11:32;;;;;;;30.10;12.15;;;2.10;99.90;;;;;;5065777;28;20028;-66
2021/11/21 04:13:59;;;;;;;20.45;11.40;;;2.80;99.90;;;;;;5074428;28;20035;-65
2021/11/21 04:16:26;;;;;;;44.25;12.02;;;1.80;99.90;;;;;;5091347;28;20428;-68
2021/11/21 04:18:51;;;;;;;71.15;12.25;;;2.80;99.90;;;;;;5087777;28;20040;-66
2021/11/21 04:21:17;;;;;;;36.30;10.93;;;1.40;99.90;;;;;;5090542;28;20031;-67
2021/11/21 04:23:43;;;;;;;35.97;10.20;;;2.00;99.90;;;;;;5091891;28;20026;-65
2021/11/21 04:26:08;;;;;;;31.77;11.65;;;1.80;99.90;;;;;;5088165;28;20126;-65
2021/11/21 04:28:36;;;;;;;23.63;11.68;;;1.60;99.90;;;;;;5090357;28;20477;-65
2021/11/21 04:31:02;;;;;;;65.80;12.20;;;1.70;99.90;;;;;;5085068;28;20043;-66
2021/11/21 04:33:28;;;;;;;34.65;10.80;;;1.60;99.90;;;;;;5090065;28;20028;-65
2021/11/21 04:35:53;;;;;;;22.27;9.45;;;2.10;99.90;;;;;;5089571;28;20032;-64
2021/11/21 04:38:21;;;;;;;33.08;10.93;;;1.10;99.90;;;;;;5084816;28;20028;-65
2021/11/21 04:40:48;;;;;;;35.90;10.50;;;1.70;99.90;;;;;;5090280;28;20032;-66
2021/11/21 04:43:15;;;;;;;51.65;11.20;;;1.50;99.90;;;;;;5081628;28;20032;-64
2021/11/21 04:45:41;;;;;;;28.45;10.95;;;1.20;99.90;;;;;;5092352;28;20020;-65
2021/11/21 04:48:06;;;;;;;58.60;10.82;;;1.40;99.90;;;;;;5075911;28;20075;-66
2021/11/21 04:50:33;;;;;;;18.40;9.38;;;1.50;99.90;;;;;;5069536;28;20096;-66
2021/11/21 04:52:58;;;;;;;21.80;11.00;;;1.00;99.90;;;;;;5081634;28;20024;-66
2021/11/21 04:55:24;;;;;;;14.18;9.68;;;1.40;99.90;;;;;;5091226;28;20041;-65
2021/11/21 04:57:50;;;;;;;36.05;10.63;;;1.50;99.90;;;;;;5094534;28;20051;-65
2021/11/21 05:00:18;;;;;;;23.02;9.98;;;1.10;99.90;;;;;;5091869;28;20047;-65
2021/11/21 05:02:48;;;;;;;47.58;10.55;;;1.30;99.90;;;;;;5080908;28;20031;-67
2021/11/21 05:05:16;;;;;;;11.02;8.93;;;1.00;99.90;;;;;;5095210;28;20024;-65
2021/11/21 05:07:42;;;;;;;25.08;9.10;;;1.40;99.90;;;;;;5075829;28;20423;-66
2021/11/21 05:10:09;;;;;;;19.40;9.80;;;0.90;99.90;;;;;;5086292;28;20032;-68
2021/11/21 05:12:38;;;;;;;13.43;10.15;;;1.20;99.90;;;;;;5089868;28;20017;-66
2021/11/21 05:15:06;;;;;;;38.47;8.88;;;2.10;99.90;;;;;;5082966;28;20019;-68
2021/11/21 05:17:31;;;;;;;50.92;10.23;;;1.20;99.90;;;;;;5085048;28;20043;-65
2021/11/21 05:20:00;;;;;;;17.85;9.55;;;1.70;99.90;;;;;;5054748;28;20082;-64
2021/11/21 05:22:27;;;;;;;25.52;9.48;;;1.30;99.90;;;;;;5085063;28;20448;-67
2021/11/21 05:24:54;;;;;;;12.40;8.90;;;0.90;99.90;;;;;;5088779;28;20028;-66
2021/11/21 05:27:21;;;;;;;21.33;8.15;;;1.00;99.90;;;;;;5089882;28;20059;-67
2021/11/21 05:29:47;;;;;;;15.32;8.88;;;1.10;99.90;;;;;;5089230;28;20032;-65
2021/11/21 05:32:13;;;;;;;9.98;7.47;;;;;;;;;;5092135;28;20035;-67
2021/11/21 05:34:38;;;;;;;10.88;8.20;;;1.00;99.90;;;;;;5087921;28;20052;-67
2021/11/21 05:37:05;;;;;;;11.57;8.88;;;0.80;99.90;;;;;;5089165;28;20067;-66
2021/11/21 05:39:31;;;;;;;10.75;8.60;;;1.20;99.90;;;;;;5082640;28;20550;-66
2021/11/21 05:41:56;;;;;;;12.70;9.18;;;1.80;99.90;;;;;;5088590;28;20816;-67
2021/11/21 05:44:22;;;;;;;28.88;8.80;;;1.40;99.90;;;;;;5088432;28;20032;-66
2021/11/21 05:46:48;;;;;;;18.60;8.10;;;1.00;99.90;;;;;;5083430;28;20028;-66
2021/11/21 05:49:14;;;;;;;15.07;8.32;;;1.10;99.90;;;;;;5056011;28;20028;-64
2021/11/21 05:51:40;;;;;;;9.85;8.00;;;0.80;99.90;;;;;;5057330;28;20044;-66
2021/11/21 05:54:05;;;;;;;19.33;8.45;;;0.80;99.90;;;;;;5088243;28;20034;-65
2021/11/21 05:56:31;;;;;;;22.20;9.00;;;1.40;99.90;;;;;;5090488;28;20031;-67
2021/11/21 05:58:57;;;;;;;12.27;7.95;;;1.40;99.90;;;;;;5088924;28;20036;-65
2021/11/21 06:01:23;;;;;;;21.73;7.90;;;;;;;;;;5091613;28;20033;-64
2021/11/21 06:03:51;;;;;;;11.73;8.45;;;1.00;99.90;;;;;;5086376;28;20026;-65
2021/11/21 06:06:18;;;;;;;21.90;9.50;;;1.60;99.90;;;;;;5071129;28;20028;-65
2021/11/21 06:08:44;;;;;;;11.25;8.52;;;1.50;99.90;;;;;;5084317;28;20052;-66
2021/11/21 06:11:10;;;;;;;10.48;8.02;;;1.00;99.90;;;;;;5080489;28;20063;-65
2021/11/21 06:13:35;;;;;;;13.70;8.57;;;1.30;99.90;;;;;;5088770;28;20070;-65
2021/11/21 06:16:01;;;;;;;9.98;7.90;;;1.00;99.90;;;;;;5091015;28;20028;-65
2021/11/21 06:18:27;;;;;;;11.88;8.18;;;0.90;99.90;;;;;;5060694;28;20041;-66
2021/11/21 06:20:53;;;;;;;18.40;9.18;;;1.00;99.90;;;;;;5058609;28;20043;-64
2021/11/21 06:23:18;;;;;;;11.07;8.75;;;0.90;99.90;;;;;;5072626;28;20036;-65
2021/11/21 06:25:44;;;;;;;22.95;9.23;;;0.70;99.90;;;;;;5092251;28;20038;-67
2021/11/21 06:28:11;;;;;;;19.90;8.63;;;1.10;99.90;;;;;;5092803;28;20500;-66
2021/11/21 06:30:39;;;;;;;15.52;8.73;;;1.20;99.90;;;;;;5087521;28;20031;-66
2021/11/21 06:33:05;;;;;;;13.98;8.52;;;1.40;99.90;;;;;;5054014;28;20545;-64
2021/11/21 06:35:31;;;;;;;12.50;9.20;;;1.30;99.90;;;;;;5065718;28;20040;-66
2021/11/21 06:37:58;;;;;;;11.98;8.65;;;0.80;99.90;;;;;;5095443;28;20032;-72
2021/11/21 06:40:24;;;;;;;17.95;9.43;;;1.30;99.90;;;;;;5072436;28;20115;-70
2021/11/21 06:42:50;;;;;;;15.57;10.15;;;1.10;99.90;;;;;;5074538;28;20100;-69
2021/11/21 06:45:15;;;;;;;14.05;9.23;;;1.50;99.90;;;;;;5068862;28;20416;-69
2021/11/21 06:47:41;;;;;;;14.15;9.80;;;1.60;99.90;;;;;;5070210;28;20128;-70
2021/11/21 06:50:10;;;;;;;14.60;9.85;;;1.10;99.90;;;;;;5075839;28;20039;-69
2021/11/21 06:52:36;;;;;;;18.17;8.75;;;0.90;99.90;;;;;;5070627;28;20070;-70
2021/11/21 06:55:04;;;;;;;19.30;9.95;;;1.20;99.90;;;;;;5072175;28;20020;-69
2021/11/21 06:57:33;;;;;;;17.15;9.68;;;1.30;99.90;;;;;;5074721;28;20497;-70
2021/11/21 06:59:59;;;;;;;20.00;8.80;;;1.50;99.90;;;;;;5074829;28;20386;-70
2021/11/21 07:02:24;;;;;;;12.90;9.23;;;1.20;99.90;;;;;;5078904;28;20477;-71
2021/11/21 07:04:50;;;;;;;14.65;9.23;;;1.40;99.90;;;;;;5091385;28;20036;-70
2021/11/21 07:07:16;;;;;;;23.17;9.25;;;1.30;99.90;;;;;;5090482;28;20481;-70
2021/11/21 07:09:44;;;;;;;19.60;9.43;;;1.30;99.90;;;;;;5088894;28;20028;-70
2021/11/21 07:12:10;;;;;;;13.10;8.68;;;1.10;99.90;;;;;;5091609;28;20035;-71
2021/11/21 07:14:36;;;;;;;12.90;8.20;;;1.30;99.90;;;;;;5085943;28;20024;-69
2021/11/21 07:17:02;;;;;;;13.65;9.10;;;1.40;99.90;;;;;;5091702;28;20066;-69
2021/11/21 07:19:28;;;;;;;16.88;9.30;;;1.20;99.90;;;;;;5062433;28;20033;-69
2021/11/21 07:21:54;;;;;;;16.17;9.45;;;1.20;99.90;;;;;;5086332;28;20054;-70
2021/11/21 07:24:19;;;;;;;24.05;10.02;;;1.20;99.90;;;;;;5079017;28;20024;-69
2021/11/21 07:26:45;;;;;;;13.65;9.15;;;1.50;99.90;;;;;;5067059;28;20020;-71
2021/11/21 07:29:11;;;;;;;15.15;9.43;;;1.30;99.90;;;;;;5060739;28;20111;-69
2021/11/21 07:31:37;;;;;;;21.98;10.10;;;1.10;99.90;;;;;;5082565;28;20081;-70
2021/11/21 07:34:03;;;;;;;14.15;9.85;;;1.60;99.90;;;;;;5076004;28;20082;-69
2021/11/21 07:36:29;;;;;;;12.32;8.73;;;1.80;99.90;;;;;;5064700;28;20035;-70
2021/11/21 07:38:55;;;;;;;9.35;7.47;;;1.40;99.90;;;;;;5080020;28;20099;-70
2021/11/21 07:41:20;;;;;;;8.07;6.53;;;2.20;99.90;;;;;;5081038;28;20153;-70
2021/11/21 07:43:46;;;;;;;8.18;6.80;;;1.60;99.90;;;;;;5084772;28;20025;-70
2021/11/21 07:46:12;;;;;;;7.45;6.22;;;2.30;99.90;;;;;;5083003;28;20024;-70
2021/11/21 07:48:38;;;;;;;7.10;6.30;;;1.70;99.90;;;;;;5080281;28;20020;-71
2021/11/21 07:51:04;;;;;;;7.53;6.10;;;1.50;99.90;;;;;;5078540;28;20165;-71
2021/11/21 07:53:30;;;;;;;6.80;5.35;;;2.80;99.90;;;;;;5083148;28;20020;-71
2021/11/21 07:55:56;;;;;;;5.72;5.13;;;2.30;99.90;;;;;;5079421;28;20033;-70
2021/11/21 07:58:22;;;;;;;5.78;5.22;;;2.00;99.90;;;;;;5078208;28;20059;-71
2021/11/21 08:00:48;;;;;;;6.78;5.60;;;2.00;99.90;;;;;;5093715;28;20055;-70
2021/11/21 08:03:14;;;;;;;6.53;4.97;;;2.00;99.90;;;;;;5089112;28;20423;-78
2021/11/21 08:05:40;;;;;;;5.68;4.88;;;2.00;99.90;;;;;;5076910;28;20029;-78
2021/11/21 08:08:06;;;;;;;6.28;4.75;;;2.10;99.90;;;;;;5077288;28;20528;-77
2021/11/21 08:10:34;;;;;;;6.72;4.68;;;3.60;99.90;;;;;;5085504;28;20073;-70
2021/11/21 08:12:59;;;;;;;5.25;4.75;;;2.20;99.90;;;;;;5064144;28;20032;-69
2021/11/21 08:15:25;;;;;;;6.13;5.05;;;2.30;99.90;;;;;;5078090;28;20025;-70
2021/11/21 08:17:51;;;;;;;5.15;4.65;;;1.60;99.90;;;;;;5077049;28;20043;-69
2021/11/21 08:20:17;;;;;;;7.38;5.50;;;2.00;99.90;;;;;;5073314;28;20061;-69
2021/11/21 08:22:42;;;;;;;7.68;5.35;;;1.90;99.90;;;;;;5083055;28;20436;-72
2021/11/21 08:25:09;;;;;;;5.78;5.15;;;2.30;99.90;;;;;;5092923;28;20061;-78
2021/11/21 08:27:37;;;;;;;7.07;5.30;;;2.10;99.90;;;;;;5089399;28;20024;-78
2021/11/21 08:30:04;;;;;;;9.02;6.95;;;2.20;99.90;;;;;;5055230;28;20075;-70
2021/11/21 08:32:30;;;;;;;8.68;5.93;;;2.40;99.90;;;;;;5036730;28;20082;-69
2021/11/21 08:34:56;;;;;;;8.32;6.05;;;2.40;99.90;;;;;;5075111;28;20134;-69
2021/11/21 08:37:21;;;;;;;9.10;5.95;;;2.70;99.90;;;;;;5090189;28;20111;-70
2021/11/21 08:39:47;;;;;;;7.00;5.50;;;3.60;99.90;;;;;;5084461;28;20028;-70
2021/11/21 08:42:13;;;;;;;9.13;6.13;;;2.60;99.90;;;;;;5088037;28;20028;-71
2021/11/21 08:44:39;;;;;;;6.75;5.50;;;3.50;99.90;;;;;;5089079;28;20028;-71
2021/11/21 08:47:05;;;;;;;7.35;5.63;;;3.10;99.90;;;;;;5089959;28;20024;-70
2021/11/21 08:49:30;;;;;;;7.13;5.72;;;2.70;99.90;;;;;;5086389;28;20487;-71
2021/11/21 08:51:56;;;;;;;10.95;7.78;;;2.40;99.90;;;;;;5124155;22;20044;-68
2021/11/21 08:54:21;;;;;;;11.23;8.43;;;2.40;99.90;;;;;;5054702;28;20061;-69
2021/11/21 08:56:49;;;;;;;11.75;7.65;;;2.60;99.90;;;;;;5052648;28;20021;-68
2021/11/21 08:59:14;;;;;;;8.63;7.13;;;3.00;99.90;;;;;;5051346;28;20108;-69
2021/11/21 09:01:42;;;;;;;12.48;8.55;;;2.40;99.90;;;;;;5046911;28;20104;-69
2021/11/21 09:04:08;;;;;;;11.88;8.00;;;4.10;99.90;;;;;;5052879;28;20474;-68
2021/11/21 09:06:34;;;;;;;10.45;8.05;;;3.70;99.90;;;;;;5050336;28;20096;-69
2021/11/21 09:08:59;;;;;;;11.73;8.23;;;2.70;99.90;;;;;;5047012;28;20108;-67
2021/11/21 09:11:25;;;;;;;10.65;7.68;;;3.50;99.90;;;;;;5052636;28;20486;-69
2021/11/21 09:13:51;;;;;;;12.07;8.45;;;2.70;99.90;;;;;;5049182;28;20029;-68
2021/11/21 09:16:17;;;;;;;9.38;7.53;;;2.50;99.90;;;;;;5047981;28;20116;-68
2021/11/21 09:18:43;;;;;;;12.10;8.82;;;2.40;99.90;;;;;;5050776;28;20036;-69
2021/11/21 09:21:09;;;;;;;10.40;7.88;;;2.20;99.90;;;;;;5048075;28;20028;-68
2021/11/21 09:23:34;;;;;;;11.02;8.38;;;2.50;99.90;;;;;;5050393;28;20025;-69
2021/11/21 09:26:00;;;;;;;13.25;9.48;;;3.40;99.90;;;;;;5050123;28;20116;-67
2021/11/21 09:28:26;;;;;;;13.55;8.77;;;2.90;99.90;;;;;;5046241;28;20063;-67
2021/11/21 09:30:55;;;;;;;11.57;8.18;;;2.40;99.90;;;;;;5052486;28;20028;-66
2021/11/21 09:33:21;;;;;;;11.90;9.18;;;2.50;99.90;;;;;;5050135;28;20398;-67
2021/11/21 09:35:47;;;;;;;11.20;8.75;;;3.00;99.90;;;;;;5048311;28;20044;-67
2021/11/21 09:38:14;;;;;;;12.38;8.98;;;2.50;99.90;;;;;;5051705;28;20024;-67
2021/11/21 09:40:39;;;;;;;12.35;8.50;;;2.60;99.90;;;;;;5047260;28;20033;-68
2021/11/21 09:43:05;;;;;;;12.65;8.48;;;2.50;99.90;;;;;;5048472;28;20036;-68
2021/11/21 09:45:31;;;;;;;11.40;9.30;;;2.70;99.90;;;;;;5051304;28;20029;-68
2021/11/21 09:47:59;;;;;;;14.23;8.40;;;2.70;99.90;;;;;;5033198;28;20060;-68
2021/11/21 09:50:30;;;;;;;13.18;9.15;;;2.70;99.90;;;;;;5050258;28;20022;-68
2021/11/21 09:52:57;;;;;;;12.95;9.23;;;2.50;99.90;;;;;;5049872;28;20029;-69
2021/11/21 09:55:23;;;;;;;12.35;9.32;;;2.70;99.90;;;;;;5038682;28;20057;-67
2021/11/21 09:57:49;;;;;;;12.20;8.55;;;2.80;99.90;;;;;;5050292;28;20486;-67
2021/11/21 10:00:20;;;;;;;12.07;8.52;;;2.70;99.90;;;;;;5050194;28;20033;-67
2021/11/21 10:02:58;;;;;;;10.67;8.30;;;3.00;99.90;;;;;;5033314;28;20036;-67
2021/11/21 10:05:29;;;;;;;10.40;7.75;;;2.80;99.90;;;;;;5050224;28;20391;-67
2021/11/21 10:08:05;;;;;;;14.30;9.02;;;3.00;99.90;;;;;;5032038;28;20028;-67
2021/11/21 10:10:48;;;;;;;13.75;8.57;;;2.80;99.90;;;;;;5035925;28;20028;-67
2021/11/21 10:13:35;;;;;;;12.20;8.82;;;2.90;99.90;;;;;;5051346;28;20479;-67
2021/11/21 10:16:31;;;;;;;12.70;8.60;;;2.90;99.90;;;;;;5046687;28;20712;-68
2021/11/21 10:19:05;;;;;;;14.07;9.82;;;3.00;99.90;;;;;;5033414;28;20040;-68
2021/11/21 10:21:53;;;;;;;13.55;9.05;;;2.90;99.90;;;;;;5042298;28;20025;-67
2021/11/21 10:24:28;;;;;;;15.65;9.23;;;3.10;99.90;;;;;;5035309;28;20021;-67
2021/11/21 10:27:11;;;;;;;18.67;10.38;;;3.70;99.90;;;;;;5051251;28;20028;-67
2021/11/21 10:29:39;;;;;;;13.95;9.73;;;3.20;99.90;;;;;;5048818;28;20529;-67
2021/11/21 10:32:34;;;;;;;13.75;9.85;;;3.30;99.90;;;;;;5049693;28;20033;-67
2021/11/21 10:35:18;;;;;;;15.02;9.55;;;3.10;99.90;;;;;;5045530;28;20028;-67
2021/11/21 10:37:45;;;;;;;15.05;9.65;;;3.10;99.90;;;;;;5051100;28;20086;-68
2021/11/21 10:40:19;;;;;;;17.38;10.00;;;3.20;99.90;;;;;;5050680;28;20028;-68
2021/11/21 10:42:46;;;;;;;12.77;9.52;;;3.10;99.90;;;;;;5048776;28;20029;-68
2021/11/21 10:45:14;;;;;;;13.95;9.30;;;3.10;99.90;;;;;;5049202;28;20040;-67
2021/11/21 10:47:47;;;;;;;14.30;9.70;;;3.10;99.90;;;;;;5051392;28;20482;-67
2021/11/21 10:50:25;;;;;;;16.45;10.07;;;3.60;99.90;;;;;;5045399;28;20071;-68
2021/11/21 10:52:51;;;;;;;14.85;10.20;;;3.20;99.90;;;;;;5049536;28;20055;-67
2021/11/21 10:55:18;;;;;;;15.98;10.80;;;3.30;99.90;;;;;;5046291;28;20491;-67
2021/11/21 10:57:44;;;;;;;18.10;11.00;;;3.30;99.90;;;;;;5054095;28;20538;-67
2021/11/21 11:00:27;;;;;;;14.98;10.50;;;3.50;99.90;;;;;;5056338;28;20071;-67
2021/11/21 11:02:53;;;;;;;16.00;9.90;;;3.00;99.90;;;;;;5048538;28;20048;-67
2021/11/21 11:05:24;;;;;;;16.50;10.73;;;3.20;99.90;;;;;;5030685;28;20030;-67
2021/11/21 11:07:53;;;;;;;20.63;11.35;;;3.70;99.90;;;;;;5048259;28;20029;-67
2021/11/21 11:10:27;;;;;;;13.55;9.10;;;3.30;99.90;;;;;;5052207;28;20031;-67
2021/11/21 11:13:07;;;;;;;16.50;9.90;;;3.30;99.90;;;;;;5053736;28;20494;-68
2021/11/21 11:15:39;;;;;;;12.70;9.10;;;3.60;99.90;;;;;;5035351;28;20487;-67
2021/11/21 11:18:06;;;;;;;17.55;10.07;;;4.00;99.90;;;;;;5052848;28;20059;-67
2021/11/21 11:20:40;;;;;;;16.92;9.63;;;4.20;99.90;;;;;;5036004;28;20033;-67
2021/11/21 11:23:06;;;;;;;21.50;10.30;;;3.70;99.90;;;;;;5052411;28;20032;-66
2021/11/21 11:25:33;;;;;;;19.77;12.65;;;4.30;99.90;;;;;;5053363;28;20029;-67
2021/11/21 11:28:09;;;;;;;29.02;20.30;;;4.10;99.90;;;;;;5053642;28;20043;-67
2021/11/21 11:30:36;;;;;;;15.10;10.13;;;4.40;99.90;;;;;;5044494;28;20399;-67
2021/11/21 11:33:15;;;;;;;17.10;9.75;;;4.20;99.90;;;;;;5036351;28;20096;-66
2021/11/21 11:35:53;;;;;;;17.27;10.23;;;4.20;99.90;;;;;;5047605;28;20513;-67
2021/11/21 11:38:23;;;;;;;17.02;9.85;;;4.10;99.90;;;;;;5052809;28;20025;-67
2021/11/21 11:41:03;;;;;;;16.73;9.82;;;4.30;99.90;;;;;;5053283;28;20025;-67
2021/11/21 11:43:38;;;;;;;14.45;9.63;;;4.20;99.90;;;;;;5044975;28;20060;-67
2021/11/21 11:46:04;;;;;;;17.55;9.98;;;4.40;99.90;;;;;;5052207;28;20021;-68
2021/11/21 11:48:33;;;;;;;19.08;10.90;;;4.30;99.90;;;;;;5052677;28;20035;-67
2021/11/21 11:51:11;;;;;;;52.13;17.42;;;4.10;99.90;;;;;;5034124;28;20028;-67
2021/11/21 11:53:39;;;;;;;19.60;11.10;;;4.50;99.90;;;;;;5045525;28;20041;-69
2021/11/21 11:56:30;;;;;;;17.83;10.70;;;4.30;99.90;;;;;;5064819;28;20044;-68
2021/11/21 11:58:59;;;;;;;17.37;10.17;;;3.80;99.90;;;;;;5053943;28;20025;-69
2021/11/21 12:01:38;;;;;;;15.60;11.27;;;4.30;99.90;;;;;;5052237;28;20795;-69
2021/11/21 12:04:05;;;;;;;18.35;11.35;;;4.60;99.90;;;;;;5047941;28;20023;-69
2021/11/21 12:06:51;;;;;;;14.93;10.15;;;4.90;99.90;;;;;;5052914;28;20104;-69
2021/11/21 12:09:26;;;;;;;14.20;10.55;;;4.60;99.90;;;;;;5053544;28;20109;-70
2021/11/21 12:11:52;;;;;;;16.20;9.70;;;4.70;99.90;;;;;;5047939;28;20037;-69
2021/11/21 12:14:38;;;;;;;15.30;10.40;;;4.60;99.90;;;;;;5051736;28;20040;-69
2021/11/21 12:17:15;;;;;;;18.67;11.73;;;4.40;99.90;;;;;;5049497;28;20500;-69
2021/11/21 12:19:46;;;;;;;17.33;10.77;;;4.40;99.90;;;;;;5051629;28;20029;-69
2021/11/21 12:22:24;;;;;;;14.70;9.47;;;4.90;99.90;;;;;;5052066;28;20036;-69
2021/11/21 12:24:53;;;;;;;15.45;10.75;;;4.60;99.90;;;;;;5039004;28;20033;-76
2021/11/21 12:27:26;;;;;;;16.13;10.73;;;4.50;99.90;;;;;;5049397;28;20367;-75
2021/11/21 12:30:21;;;;;;;18.48;10.43;;;4.60;99.90;;;;;;5035027;28;20438;-74
2021/11/21 12:32:47;;;;;;;19.80;11.52;;;;;;;;;;5033727;28;20033;-77
2021/11/21 12:35:35;;;;;;;17.40;10.60;;;4.70;99.90;;;;;;5034713;28;20021;-68
2021/11/21 12:38:02;;;;;;;14.20;10.13;;;4.70;99.90;;;;;;5037739;28;20592;-69
2021/11/21 12:40:35;;;;;;;13.82;10.18;;;4.80;99.90;;;;;;5037009;28;20094;-68
2021/11/21 12:43:09;;;;;;;13.60;9.13;;;4.90;99.90;;;;;;5033215;28;20023;-67
2021/11/21 12:45:58;;;;;;;13.32;9.20;;;4.90;99.90;;;;;;5041583;28;20514;-69
2021/11/21 12:48:25;;;;;;;14.68;10.02;;;5.20;99.90;;;;;;5040242;28;20033;-68
2021/11/21 12:50:52;;;;;;;14.95;9.73;;;5.80;99.90;;;;;;5049909;28;20032;-68